AirNav   Everest Fuels
 
 1440 users online  

7N4 Honey Acres Airport
Clinton, Michigan, USA

GOING TO CLINTON?


FAA INFORMATION EFFECTIVE 28 FEBRUARY 2019

Location

FAA Identifier: 7N4
Lat/Long: 42-04-40.1510N / 083-59-09.7950W
42-04.669183N / 083-59.163250W
42.0778197 / -83.9860542
(estimated)
Elevation: 820 ft. / 250 m (estimated)
Variation: 04W (1985)
From city: 1 mile W of CLINTON, MI
Time zone: UTC -5 (UTC -4 during Daylight Saving Time)
Zip code: 49236

Airport Operations

Airport use: Open to the public
Activation date: 07/1990
Control tower: no
ARTCC: CLEVELAND CENTER
FSS: LANSING FLIGHT SERVICE STATION
NOTAMs facility: LAN (NOTAM-D service available)
Attendance: IREG
Wind indicator: yes
Segmented circle: no

Airport Communications

CTAF: 122.9
WX ASOS at ADG (13 nm S): 118.375 (517-265-9089)
WX ASOS at ARB (14 nm NE): PHONE 734-668-7173

Nearby radio navigation aids

VOR radial/distance  VOR name  Freq  Var
CRLr277/23.6CARLETON VOR/DME115.7003W
JXNr122/23.7JACKSON VOR/DME109.6005W
SVMr224/26.4SALEM VORTAC114.3003W
DXOr260/28.7DETROIT VOR/DME113.4006W
LFDr093/34.7LITCHFIELD VOR/DME111.2005W

 
NDB name  Hdg/Dist  Freq  Var  ID
TECUMSEH307/5.223906WTCU - -.-. ..-
ADRIAN024/13.127806WADG .- -.. --.
GROSSE ILE275/37.141907WRYS .-. -.-- ...

Airport Services

Parking: tiedowns

Runway Information

Runway 18/36

Dimensions: 3800 x 90 ft. / 1158 x 27 m
Surface: turf, in good condition
Runway edge markings: RWY 36 THLD & DSPLCD THLD MKD WITH 3 FT YELLOW CONES.
RUNWAY 18  RUNWAY 36
Latitude: 42-04.978333N42-04.353333N
Longitude: 083-59.173333W083-59.148333W
Traffic pattern: leftleft
Displaced threshold: 600 ft.600 ft.
Obstructions: 40 ft. trees, 106 ft. left of centerline32 ft. bldg, lighted, 129 ft. from runway, 55 ft. left of centerline, 4:1 slope to clear
APCH RATIO 8:1 AT DSPLCD THLD OVER 80 FT TREE, 714 FT DSTC, 125 L.

Airport Ownership and Management from official FAA records

Ownership: Privately-owned
Owner: RAYMOND L. KUSSMAUL
12447 MATTHEWS HWY
CLINTON, MI 49236
Phone 517-902-3270
Manager: RAYMOND L. KUSSMAUL
12447 MATTHEWS HWY
CLINTON, MI 49236
Phone 517-902-3270

Airport Operational Statistics

Aircraft based on the field: 4
Single engine airplanes: 4
    
Aircraft operations: avg 38/month *
50% transient general aviation
50% local general aviation
* for 12-month period ending 31 December 2017

Additional Remarks

BUILDING & HGR IN PRIMARY SFC.
RWY 36, +18 FT PLINE 430 FT FROM THLD MARKED WITH ORANGE BALLS.
RY SOFT DURG SPRING THAW AND AFT HEAVY RAINS.
FOR CD CTC DETROIT APCH AT 800-499-8181.
DEER AND BIRDS ON AND INVOF RWY.

Instrument Procedures

There are no published instrument procedures at 7N4.

Some nearby airports with instrument procedures:

KADG - Lenawee County Airport (13 nm S)
KARB - Ann Arbor Municipal Airport (14 nm NE)
KYIP - Willow Run Airport (22 nm NE)
KJXN - Jackson County Airport-Reynolds Field (24 nm NW)
KDUH - Toledo Suburban Airport (25 nm SE)
 
Loc | Ops | Rwys | IFR | FBO | Links
Com | Nav | Svcs | Stats | Notes
Area around 7N4 (Honey Acres Airport)
 
Road maps at: MapQuest Bing Google
 
Aerial photo
WARNING: Photo may not be current or correct
Aerial photo of 7N4 (Honey Acres Airport)
Credit: M. Coleman - LocalHangar.com

Do you have a better or more recent aerial photo of Honey Acres Airport that you would like to share? If so, please send us your photo.

 
Sectional chart

 
Airport distance calculator
Flying to Honey Acres Airport? Find the distance to fly.

From to 7N4

Sunrise and sunset
Times for 19-Mar-2019
 Local
(UTC-4)
 Zulu
(UTC)
Morning civil twilight07:1411:14
Sunrise07:4211:42
Sunset19:4623:46
Evening civil twilight20:1300:13

Current date and time
Zulu (UTC)  19-Mar-2019 20:42:48
Local (UTC-4)  19-Mar-2019 16:42:48
 
METAR
KADG 
13nm S 
191953Z AUTO 23010KT 10SM BKN050 BKN060 07/M04 A3036 RMK AO2 SLP292 T00721039 TSNO
KARB 
14nm NE 
734-668-7173
191953Z 21012G18KT 10SM BKN055 09/M04 A3034 RMK AO2 SLP281 T00941044
KYIP 
22nm NE 
191953Z 21007KT 10SM FEW060 09/M04 A3035 RMK AO2 SLP280 T00891039
KJXN 
24nm NW 
191956Z 23009KT 10SM SCT055 07/M05 A3033 RMK AO2 SLP281 T00721050
KDUH 
26nm SE 
192016Z AUTO 21011KT 10SM OVC060 08/M03 A3036 RMK AO2 T00801030
TAF
KYIP 
22nm NE 
191720Z 1918/2018 28007KT P6SM BKN050 FM200000 20004KT P6SM SKC FM201500 18010KT P6SM SCT040 OVC080
KJXN 
24nm NW 
191831Z 1919/2018 24006KT P6SM FEW050 FM200200 15005KT P6SM SKC FM201200 17005KT P6SM OVC050 FM201600 19012G22KT 4SM -RA OVC050 FM201700 19014G24KT 1 1/2SM RA BR OVC007
NOTAMs
Click for the latest NOTAMs
NOTAMs are issued by the DoD/FAA and will open in a separate window not controlled by AirNav.

 

 
 

Where to Eat: Catering, Restaurants, Food shops

  
 Business Name 
 
 Contact 
 
 Services / Description 
 
Distance
 
Comments
  
Race Track Inn 517-456-7768
no information available

If you are affiliated with Race Track Inn and would like to show here your services, contact info, web link, logo, and more, click here
0.2 miles  
   write
McDonald's 517-456-8700
no information available

If you are affiliated with McDonald's and would like to show here your services, contact info, web link, logo, and more, click here
0.4 miles  
   write
 

Would you like to see your business listed on this page?

 If your business provides an interesting product or service to pilots, flight crews, aircraft, or users of the Honey Acres Airport, you should consider listing it here.  To start the listing process, click on the button below
 
Add a business
 

Other Pages about Honey Acres Airport

Page from the Michigan Airport Directory (PDF)
 
Update a link
 
Copyright © AirNav, LLC. All rights reserved. Privacy Policy  Contact